Terminal Aerodrome Forecast
Issued by NWS

Home | Current Version | Previous Version | Text Only | Print | Product List | Glossary Off
Versions: 1 2 3 4 5 6 7 8 9 10 11 12 13 14 15 16

000
FTUS43 KGRB 241727
TAFAUW
TAF
KAUW 241727Z 2418/2518 28013G18KT P6SM VCSH SCT035 BKN070
      TEMPO 2420/2424 -SHRA OVC035
     FM250000 29007KT P6SM -SHRA BKN100
     FM250300 29004KT P6SM BKN110
     FM251200 30005KT P6SM BKN022
     FM251500 30007KT P6SM -SHRA BKN035=

USA.gov is the U.S. government's official web portal to all federal, state and local government web resources and services.